sensor_id;sensor_type;location;lat;lon;timestamp;P1;durP1;ratioP1;P2;durP2;ratioP2
4122;SDS011;2075;51.062;6.920;2023-03-07T00:02:03;13.80;;;7.37;;
4122;SDS011;2075;51.062;6.920;2023-03-07T00:04:48;14.73;;;8.10;;
4122;SDS011;2075;51.062;6.920;2023-03-07T00:07:34;16.07;;;7.83;;
4122;SDS011;2075;51.062;6.920;2023-03-07T00:10:20;13.80;;;7.87;;
4122;SDS011;2075;51.062;6.920;2023-03-07T00:13:05;14.63;;;7.90;;
4122;SDS011;2075;51.062;6.920;2023-03-07T00:15:53;12.70;;;7.20;;
4122;SDS011;2075;51.062;6.920;2023-03-07T00:18:38;13.20;;;8.37;;
4122;SDS011;2075;51.062;6.920;2023-03-07T00:21:24;10.73;;;7.03;;
4122;SDS011;2075;51.062;6.920;2023-03-07T00:24:13;12.30;;;7.10;;
4122;SDS011;2075;51.062;6.920;2023-03-07T00:27:01;14.00;;;7.33;;
4122;SDS011;2075;51.062;6.920;2023-03-07T00:29:47;11.63;;;6.47;;
4122;SDS011;2075;51.062;6.920;2023-03-07T00:32:34;13.00;;;7.00;;
4122;SDS011;2075;51.062;6.920;2023-03-07T00:35:19;10.10;;;7.07;;
4122;SDS011;2075;51.062;6.920;2023-03-07T00:38:05;10.97;;;7.07;;
4122;SDS011;2075;51.062;6.920;2023-03-07T00:40:57;11.43;;;6.17;;
4122;SDS011;2075;51.062;6.920;2023-03-07T00:43:43;9.83;;;6.10;;
4122;SDS011;2075;51.062;6.920;2023-03-07T00:46:30;11.13;;;7.10;;
4122;SDS011;2075;51.062;6.920;2023-03-07T00:49:16;9.70;;;6.80;;
4122;SDS011;2075;51.062;6.920;2023-03-07T00:52:03;11.30;;;6.57;;
4122;SDS011;2075;51.062;6.920;2023-03-07T00:54:48;15.67;;;8.00;;
4122;SDS011;2075;51.062;6.920;2023-03-07T00:57:33;10.17;;;5.70;;
4122;SDS011;2075;51.062;6.920;2023-03-07T01:00:19;9.90;;;6.23;;
4122;SDS011;2075;51.062;6.920;2023-03-07T01:03:04;11.73;;;6.47;;
4122;SDS011;2075;51.062;6.920;2023-03-07T01:05:51;8.50;;;5.67;;
4122;SDS011;2075;51.062;6.920;2023-03-07T01:08:37;9.47;;;6.43;;
4122;SDS011;2075;51.062;6.920;2023-03-07T01:11:23;7.63;;;5.23;;
4122;SDS011;2075;51.062;6.920;2023-03-07T01:14:09;9.23;;;6.53;;
4122;SDS011;2075;51.062;6.920;2023-03-07T01:16:55;9.00;;;6.23;;
4122;SDS011;2075;51.062;6.920;2023-03-07T01:19:41;9.07;;;5.77;;
4122;SDS011;2075;51.062;6.920;2023-03-07T01:22:27;8.53;;;6.17;;
4122;SDS011;2075;51.062;6.920;2023-03-07T01:25:15;8.10;;;5.40;;
4122;SDS011;2075;51.062;6.920;2023-03-07T01:28:01;9.13;;;5.90;;
4122;SDS011;2075;51.062;6.920;2023-03-07T01:30:55;10.37;;;6.40;;
4122;SDS011;2075;51.062;6.920;2023-03-07T01:33:41;9.40;;;5.93;;
4122;SDS011;2075;51.062;6.920;2023-03-07T01:36:28;9.20;;;5.83;;
4122;SDS011;2075;51.062;6.920;2023-03-07T01:39:21;7.97;;;5.03;;
4122;SDS011;2075;51.062;6.920;2023-03-07T01:42:17;10.53;;;6.10;;
4122;SDS011;2075;51.062;6.920;2023-03-07T01:45:05;10.60;;;5.97;;
4122;SDS011;2075;51.062;6.920;2023-03-07T01:48:11;10.50;;;6.23;;
4122;SDS011;2075;51.062;6.920;2023-03-07T01:50:56;9.30;;;6.73;;
4122;SDS011;2075;51.062;6.920;2023-03-07T01:53:41;8.60;;;5.80;;
4122;SDS011;2075;51.062;6.920;2023-03-07T01:56:30;9.80;;;6.37;;
4122;SDS011;2075;51.062;6.920;2023-03-07T01:59:16;10.33;;;6.60;;
4122;SDS011;2075;51.062;6.920;2023-03-07T02:02:06;9.13;;;6.10;;
4122;SDS011;2075;51.062;6.920;2023-03-07T02:04:56;7.97;;;5.50;;
4122;SDS011;2075;51.062;6.920;2023-03-07T02:07:45;9.00;;;6.30;;
4122;SDS011;2075;51.062;6.920;2023-03-07T02:10:36;9.20;;;6.30;;
4122;SDS011;2075;51.062;6.920;2023-03-07T02:13:23;10.83;;;6.60;;
4122;SDS011;2075;51.062;6.920;2023-03-07T02:16:09;9.83;;;6.20;;
4122;SDS011;2075;51.062;6.920;2023-03-07T02:18:55;8.23;;;5.73;;
4122;SDS011;2075;51.062;6.920;2023-03-07T02:21:41;9.57;;;5.03;;
4122;SDS011;2075;51.062;6.920;2023-03-07T02:24:33;9.33;;;5.70;;
4122;SDS011;2075;51.062;6.920;2023-03-07T02:27:29;8.60;;;5.63;;
4122;SDS011;2075;51.062;6.920;2023-03-07T02:30:17;9.20;;;5.90;;
4122;SDS011;2075;51.062;6.920;2023-03-07T02:33:06;8.23;;;5.63;;
4122;SDS011;2075;51.062;6.920;2023-03-07T02:35:52;11.37;;;6.67;;
4122;SDS011;2075;51.062;6.920;2023-03-07T02:38:42;9.13;;;5.80;;
4122;SDS011;2075;51.062;6.920;2023-03-07T02:41:29;5.93;;;5.10;;
4122;SDS011;2075;51.062;6.920;2023-03-07T02:44:21;12.03;;;5.23;;
4122;SDS011;2075;51.062;6.920;2023-03-07T02:47:07;10.40;;;6.90;;
4122;SDS011;2075;51.062;6.920;2023-03-07T02:49:52;8.90;;;6.20;;
4122;SDS011;2075;51.062;6.920;2023-03-07T02:52:39;9.53;;;5.77;;
4122;SDS011;2075;51.062;6.920;2023-03-07T02:55:24;11.07;;;6.70;;
4122;SDS011;2075;51.062;6.920;2023-03-07T02:58:16;9.40;;;6.57;;
4122;SDS011;2075;51.062;6.920;2023-03-07T03:01:03;11.67;;;6.60;;
4122;SDS011;2075;51.062;6.920;2023-03-07T03:03:48;10.40;;;6.80;;
4122;SDS011;2075;51.062;6.920;2023-03-07T03:06:33;10.27;;;6.90;;
4122;SDS011;2075;51.062;6.920;2023-03-07T03:09:19;10.10;;;6.53;;
4122;SDS011;2075;51.062;6.920;2023-03-07T03:12:04;7.77;;;6.07;;
4122;SDS011;2075;51.062;6.920;2023-03-07T03:14:51;8.73;;;6.03;;
4122;SDS011;2075;51.062;6.920;2023-03-07T03:17:38;12.73;;;6.53;;
4122;SDS011;2075;51.062;6.920;2023-03-07T03:20:23;14.43;;;6.70;;
4122;SDS011;2075;51.062;6.920;2023-03-07T03:23:10;8.93;;;6.70;;
4122;SDS011;2075;51.062;6.920;2023-03-07T03:25:56;9.30;;;6.97;;
4122;SDS011;2075;51.062;6.920;2023-03-07T03:28:44;10.73;;;6.43;;
4122;SDS011;2075;51.062;6.920;2023-03-07T03:31:30;7.33;;;6.00;;
4122;SDS011;2075;51.062;6.920;2023-03-07T03:34:19;6.67;;;5.60;;
4122;SDS011;2075;51.062;6.920;2023-03-07T03:37:07;7.80;;;6.00;;
4122;SDS011;2075;51.062;6.920;2023-03-07T03:39:53;8.03;;;5.90;;
4122;SDS011;2075;51.062;6.920;2023-03-07T03:42:39;9.10;;;6.87;;
4122;SDS011;2075;51.062;6.920;2023-03-07T03:45:26;8.37;;;5.80;;
4122;SDS011;2075;51.062;6.920;2023-03-07T03:48:11;7.77;;;5.90;;
4122;SDS011;2075;51.062;6.920;2023-03-07T03:51:02;8.37;;;6.20;;
4122;SDS011;2075;51.062;6.920;2023-03-07T03:53:49;10.40;;;6.47;;
4122;SDS011;2075;51.062;6.920;2023-03-07T03:56:35;5.73;;;4.87;;
4122;SDS011;2075;51.062;6.920;2023-03-07T03:59:20;8.30;;;5.67;;
4122;SDS011;2075;51.062;6.920;2023-03-07T04:02:06;9.20;;;7.00;;
4122;SDS011;2075;51.062;6.920;2023-03-07T04:04:51;8.70;;;6.10;;
4122;SDS011;2075;51.062;6.920;2023-03-07T04:07:39;9.80;;;5.67;;
4122;SDS011;2075;51.062;6.920;2023-03-07T04:10:24;8.03;;;5.63;;
4122;SDS011;2075;51.062;6.920;2023-03-07T04:13:09;10.10;;;6.33;;
4122;SDS011;2075;51.062;6.920;2023-03-07T04:15:55;13.20;;;6.80;;
4122;SDS011;2075;51.062;6.920;2023-03-07T04:18:40;10.87;;;6.77;;
4122;SDS011;2075;51.062;6.920;2023-03-07T04:21:26;9.83;;;6.67;;
4122;SDS011;2075;51.062;6.920;2023-03-07T04:24:15;11.50;;;6.83;;
4122;SDS011;2075;51.062;6.920;2023-03-07T04:27:01;9.47;;;6.27;;
4122;SDS011;2075;51.062;6.920;2023-03-07T04:29:46;13.80;;;7.80;;
4122;SDS011;2075;51.062;6.920;2023-03-07T04:32:38;13.60;;;7.70;;
4122;SDS011;2075;51.062;6.920;2023-03-07T04:35:25;10.43;;;7.13;;
4122;SDS011;2075;51.062;6.920;2023-03-07T04:38:12;12.73;;;8.07;;
4122;SDS011;2075;51.062;6.920;2023-03-07T04:40:59;14.33;;;8.40;;
4122;SDS011;2075;51.062;6.920;2023-03-07T04:43:45;15.10;;;8.13;;
4122;SDS011;2075;51.062;6.920;2023-03-07T04:46:30;15.20;;;7.77;;
4122;SDS011;2075;51.062;6.920;2023-03-07T04:49:16;13.17;;;7.97;;
4122;SDS011;2075;51.062;6.920;2023-03-07T04:52:01;13.27;;;7.80;;
4122;SDS011;2075;51.062;6.920;2023-03-07T04:54:46;10.50;;;7.40;;
4122;SDS011;2075;51.062;6.920;2023-03-07T04:57:33;12.40;;;8.60;;
4122;SDS011;2075;51.062;6.920;2023-03-07T05:00:19;12.87;;;8.30;;
4122;SDS011;2075;51.062;6.920;2023-03-07T05:03:06;12.90;;;8.80;;
4122;SDS011;2075;51.062;6.920;2023-03-07T05:05:51;15.10;;;9.37;;
4122;SDS011;2075;51.062;6.920;2023-03-07T05:08:37;12.50;;;8.50;;
4122;SDS011;2075;51.062;6.920;2023-03-07T05:11:23;12.60;;;7.60;;
4122;SDS011;2075;51.062;6.920;2023-03-07T05:14:11;15.60;;;8.90;;
4122;SDS011;2075;51.062;6.920;2023-03-07T05:16:56;14.67;;;8.97;;
4122;SDS011;2075;51.062;6.920;2023-03-07T05:19:41;15.70;;;9.20;;
4122;SDS011;2075;51.062;6.920;2023-03-07T05:22:27;12.20;;;8.50;;
4122;SDS011;2075;51.062;6.920;2023-03-07T05:25:13;14.27;;;8.83;;
4122;SDS011;2075;51.062;6.920;2023-03-07T05:27:59;12.10;;;8.50;;
4122;SDS011;2075;51.062;6.920;2023-03-07T05:30:46;14.70;;;8.53;;
4122;SDS011;2075;51.062;6.920;2023-03-07T05:33:32;13.00;;;8.47;;
4122;SDS011;2075;51.062;6.920;2023-03-07T05:36:17;15.70;;;10.00;;
4122;SDS011;2075;51.062;6.920;2023-03-07T05:39:03;13.17;;;8.47;;
4122;SDS011;2075;51.062;6.920;2023-03-07T05:41:48;14.53;;;8.80;;
4122;SDS011;2075;51.062;6.920;2023-03-07T05:44:34;13.90;;;8.90;;
4122;SDS011;2075;51.062;6.920;2023-03-07T05:47:22;15.43;;;9.07;;
4122;SDS011;2075;51.062;6.920;2023-03-07T05:50:08;16.20;;;9.57;;
4122;SDS011;2075;51.062;6.920;2023-03-07T05:52:55;15.83;;;9.17;;
4122;SDS011;2075;51.062;6.920;2023-03-07T05:55:43;14.47;;;9.17;;
4122;SDS011;2075;51.062;6.920;2023-03-07T05:58:30;12.93;;;7.60;;
4122;SDS011;2075;51.062;6.920;2023-03-07T06:01:16;16.87;;;9.80;;
4122;SDS011;2075;51.062;6.920;2023-03-07T06:04:03;14.30;;;9.50;;
4122;SDS011;2075;51.062;6.920;2023-03-07T06:06:48;14.50;;;9.87;;
4122;SDS011;2075;51.062;6.920;2023-03-07T06:09:33;14.63;;;9.93;;
4122;SDS011;2075;51.062;6.920;2023-03-07T06:12:19;14.90;;;9.50;;
4122;SDS011;2075;51.062;6.920;2023-03-07T06:15:05;18.20;;;12.85;;
4122;SDS011;2075;51.062;6.920;2023-03-07T06:17:52;17.13;;;10.80;;
4122;SDS011;2075;51.062;6.920;2023-03-07T06:20:39;19.93;;;12.00;;
4122;SDS011;2075;51.062;6.920;2023-03-07T06:23:26;17.53;;;10.40;;
4122;SDS011;2075;51.062;6.920;2023-03-07T06:26:14;19.23;;;10.70;;
4122;SDS011;2075;51.062;6.920;2023-03-07T06:29:03;17.40;;;10.30;;
4122;SDS011;2075;51.062;6.920;2023-03-07T06:31:49;17.60;;;10.50;;
4122;SDS011;2075;51.062;6.920;2023-03-07T06:34:35;19.70;;;11.37;;
4122;SDS011;2075;51.062;6.920;2023-03-07T06:37:23;15.13;;;9.73;;
4122;SDS011;2075;51.062;6.920;2023-03-07T06:40:09;16.17;;;9.37;;
4122;SDS011;2075;51.062;6.920;2023-03-07T06:42:57;20.97;;;11.17;;
4122;SDS011;2075;51.062;6.920;2023-03-07T06:45:42;20.00;;;10.97;;
4122;SDS011;2075;51.062;6.920;2023-03-07T06:48:28;20.83;;;10.80;;
4122;SDS011;2075;51.062;6.920;2023-03-07T06:51:16;16.17;;;10.00;;
4122;SDS011;2075;51.062;6.920;2023-03-07T06:54:04;17.33;;;10.60;;
4122;SDS011;2075;51.062;6.920;2023-03-07T06:56:50;17.07;;;10.90;;
4122;SDS011;2075;51.062;6.920;2023-03-07T06:59:39;19.53;;;12.23;;
4122;SDS011;2075;51.062;6.920;2023-03-07T07:02:25;16.60;;;10.70;;
4122;SDS011;2075;51.062;6.920;2023-03-07T07:05:12;18.00;;;11.07;;
4122;SDS011;2075;51.062;6.920;2023-03-07T07:07:58;16.23;;;10.50;;
4122;SDS011;2075;51.062;6.920;2023-03-07T07:10:44;18.77;;;10.13;;
4122;SDS011;2075;51.062;6.920;2023-03-07T07:13:30;19.50;;;10.73;;
4122;SDS011;2075;51.062;6.920;2023-03-07T07:16:16;17.20;;;10.47;;
4122;SDS011;2075;51.062;6.920;2023-03-07T07:19:02;16.00;;;9.07;;
4122;SDS011;2075;51.062;6.920;2023-03-07T07:21:48;15.80;;;10.10;;
4122;SDS011;2075;51.062;6.920;2023-03-07T07:24:34;14.13;;;9.30;;
4122;SDS011;2075;51.062;6.920;2023-03-07T07:27:20;15.70;;;10.37;;
4122;SDS011;2075;51.062;6.920;2023-03-07T07:30:07;12.70;;;8.37;;
4122;SDS011;2075;51.062;6.920;2023-03-07T07:32:53;14.80;;;9.53;;
4122;SDS011;2075;51.062;6.920;2023-03-07T07:35:41;19.50;;;11.07;;
4122;SDS011;2075;51.062;6.920;2023-03-07T07:38:27;15.77;;;9.33;;
4122;SDS011;2075;51.062;6.920;2023-03-07T07:41:12;13.98;;;9.80;;
4122;SDS011;2075;51.062;6.920;2023-03-07T07:43:59;17.38;;;9.38;;
4122;SDS011;2075;51.062;6.920;2023-03-07T07:46:51;15.70;;;10.68;;
4122;SDS011;2075;51.062;6.920;2023-03-07T07:49:37;18.03;;;10.50;;
4122;SDS011;2075;51.062;6.920;2023-03-07T07:52:22;14.30;;;9.37;;
4122;SDS011;2075;51.062;6.920;2023-03-07T07:55:08;13.00;;;8.73;;
4122;SDS011;2075;51.062;6.920;2023-03-07T07:57:56;14.23;;;8.70;;
4122;SDS011;2075;51.062;6.920;2023-03-07T08:00:43;16.13;;;8.97;;
4122;SDS011;2075;51.062;6.920;2023-03-07T08:03:29;16.45;;;8.02;;
4122;SDS011;2075;51.062;6.920;2023-03-07T08:06:16;13.80;;;8.00;;
4122;SDS011;2075;51.062;6.920;2023-03-07T08:09:02;10.63;;;7.57;;
4122;SDS011;2075;51.062;6.920;2023-03-07T08:11:48;11.50;;;7.50;;
4122;SDS011;2075;51.062;6.920;2023-03-07T08:14:34;13.23;;;7.83;;
4122;SDS011;2075;51.062;6.920;2023-03-07T08:17:20;14.30;;;9.70;;
4122;SDS011;2075;51.062;6.920;2023-03-07T08:20:07;13.43;;;8.17;;
4122;SDS011;2075;51.062;6.920;2023-03-07T08:22:53;10.20;;;7.23;;
4122;SDS011;2075;51.062;6.920;2023-03-07T08:25:39;13.83;;;7.50;;
4122;SDS011;2075;51.062;6.920;2023-03-07T08:28:24;11.30;;;7.20;;
4122;SDS011;2075;51.062;6.920;2023-03-07T08:31:10;9.23;;;6.47;;
4122;SDS011;2075;51.062;6.920;2023-03-07T08:33:58;12.93;;;8.10;;
4122;SDS011;2075;51.062;6.920;2023-03-07T08:36:43;8.10;;;6.50;;
4122;SDS011;2075;51.062;6.920;2023-03-07T08:39:29;15.00;;;6.57;;
4122;SDS011;2075;51.062;6.920;2023-03-07T08:42:14;6.00;;;4.97;;
4122;SDS011;2075;51.062;6.920;2023-03-07T08:44:59;11.70;;;8.07;;
4122;SDS011;2075;51.062;6.920;2023-03-07T08:47:45;9.80;;;6.53;;
4122;SDS011;2075;51.062;6.920;2023-03-07T08:50:33;10.43;;;6.40;;
4122;SDS011;2075;51.062;6.920;2023-03-07T08:53:19;14.13;;;7.30;;
4122;SDS011;2075;51.062;6.920;2023-03-07T08:56:05;8.13;;;6.40;;
4122;SDS011;2075;51.062;6.920;2023-03-07T08:58:51;8.10;;;5.93;;
4122;SDS011;2075;51.062;6.920;2023-03-07T09:01:36;10.63;;;6.60;;
4122;SDS011;2075;51.062;6.920;2023-03-07T09:04:22;11.50;;;6.30;;
4122;SDS011;2075;51.062;6.920;2023-03-07T09:07:08;8.53;;;6.17;;
4122;SDS011;2075;51.062;6.920;2023-03-07T09:09:54;7.00;;;6.07;;
4122;SDS011;2075;51.062;6.920;2023-03-07T09:12:40;9.53;;;6.37;;
4122;SDS011;2075;51.062;6.920;2023-03-07T09:15:26;10.23;;;6.43;;
4122;SDS011;2075;51.062;6.920;2023-03-07T09:18:11;12.37;;;6.40;;
4122;SDS011;2075;51.062;6.920;2023-03-07T09:20:57;8.13;;;6.07;;
4122;SDS011;2075;51.062;6.920;2023-03-07T09:23:45;11.37;;;6.70;;
4122;SDS011;2075;51.062;6.920;2023-03-07T09:26:30;9.93;;;6.40;;
4122;SDS011;2075;51.062;6.920;2023-03-07T09:29:15;9.27;;;6.03;;
4122;SDS011;2075;51.062;6.920;2023-03-07T09:32:01;11.90;;;8.57;;
4122;SDS011;2075;51.062;6.920;2023-03-07T09:34:46;9.60;;;6.90;;
4122;SDS011;2075;51.062;6.920;2023-03-07T09:37:32;9.70;;;5.80;;
4122;SDS011;2075;51.062;6.920;2023-03-07T09:40:20;10.90;;;7.17;;
4122;SDS011;2075;51.062;6.920;2023-03-07T09:43:09;9.70;;;6.83;;
4122;SDS011;2075;51.062;6.920;2023-03-07T09:46:26;12.07;;;8.40;;
4122;SDS011;2075;51.062;6.920;2023-03-07T09:49:18;11.97;;;7.47;;
4122;SDS011;2075;51.062;6.920;2023-03-07T09:52:08;11.67;;;6.83;;
4122;SDS011;2075;51.062;6.920;2023-03-07T09:54:58;9.50;;;7.00;;
4122;SDS011;2075;51.062;6.920;2023-03-07T09:57:47;11.47;;;7.70;;
4122;SDS011;2075;51.062;6.920;2023-03-07T10:00:35;12.17;;;7.77;;
4122;SDS011;2075;51.062;6.920;2023-03-07T10:03:26;14.67;;;7.60;;
4122;SDS011;2075;51.062;6.920;2023-03-07T10:06:19;12.27;;;7.45;;
4122;SDS011;2075;51.062;6.920;2023-03-07T10:09:10;8.53;;;6.33;;
4122;SDS011;2075;51.062;6.920;2023-03-07T10:15:25;11.03;;;7.87;;
4122;SDS011;2075;51.062;6.920;2023-03-07T10:18:35;12.83;;;8.57;;
4122;SDS011;2075;51.062;6.920;2023-03-07T10:21:32;12.57;;;8.13;;
4122;SDS011;2075;51.062;6.920;2023-03-07T10:24:27;10.50;;;7.70;;
4122;SDS011;2075;51.062;6.920;2023-03-07T10:27:31;15.00;;;7.40;;
4122;SDS011;2075;51.062;6.920;2023-03-07T10:30:16;10.68;;;7.55;;
4122;SDS011;2075;51.062;6.920;2023-03-07T10:33:04;15.57;;;7.40;;
4122;SDS011;2075;51.062;6.920;2023-03-07T10:36:01;10.47;;;6.70;;
4122;SDS011;2075;51.062;6.920;2023-03-07T10:38:55;9.67;;;6.30;;
4122;SDS011;2075;51.062;6.920;2023-03-07T10:41:47;12.50;;;8.07;;
4122;SDS011;2075;51.062;6.920;2023-03-07T10:44:32;9.97;;;6.77;;
4122;SDS011;2075;51.062;6.920;2023-03-07T10:47:19;8.17;;;6.47;;
4122;SDS011;2075;51.062;6.920;2023-03-07T10:50:15;6.50;;;5.73;;
4122;SDS011;2075;51.062;6.920;2023-03-07T10:53:08;9.97;;;6.40;;
4122;SDS011;2075;51.062;6.920;2023-03-07T10:56:10;9.60;;;5.37;;
4122;SDS011;2075;51.062;6.920;2023-03-07T10:58:58;9.33;;;6.00;;
4122;SDS011;2075;51.062;6.920;2023-03-07T11:01:51;7.57;;;5.20;;
4122;SDS011;2075;51.062;6.920;2023-03-07T11:04:42;14.43;;;6.53;;
4122;SDS011;2075;51.062;6.920;2023-03-07T11:07:31;7.50;;;5.10;;
4122;SDS011;2075;51.062;6.920;2023-03-07T11:10:26;3.53;;;3.23;;
4122;SDS011;2075;51.062;6.920;2023-03-07T11:13:18;4.63;;;2.90;;
4122;SDS011;2075;51.062;6.920;2023-03-07T11:16:12;3.40;;;3.10;;
4122;SDS011;2075;51.062;6.920;2023-03-07T11:19:02;4.30;;;2.90;;
4122;SDS011;2075;51.062;6.920;2023-03-07T11:21:51;2.63;;;2.43;;
4122;SDS011;2075;51.062;6.920;2023-03-07T11:24:38;3.07;;;2.60;;
4122;SDS011;2075;51.062;6.920;2023-03-07T11:27:25;3.30;;;3.00;;
4122;SDS011;2075;51.062;6.920;2023-03-07T11:30:18;5.40;;;3.77;;
4122;SDS011;2075;51.062;6.920;2023-03-07T11:33:07;4.50;;;2.60;;
4122;SDS011;2075;51.062;6.920;2023-03-07T11:35:58;7.07;;;4.33;;
4122;SDS011;2075;51.062;6.920;2023-03-07T11:38:50;4.07;;;3.20;;
4122;SDS011;2075;51.062;6.920;2023-03-07T11:41:45;3.20;;;2.50;;
4122;SDS011;2075;51.062;6.920;2023-03-07T11:44:36;2.60;;;2.40;;
4122;SDS011;2075;51.062;6.920;2023-03-07T11:47:35;2.77;;;2.57;;
4122;SDS011;2075;51.062;6.920;2023-03-07T11:50:29;2.67;;;2.47;;
4122;SDS011;2075;51.062;6.920;2023-03-07T11:53:22;2.20;;;2.10;;
4122;SDS011;2075;51.062;6.920;2023-03-07T11:56:27;2.93;;;2.73;;
4122;SDS011;2075;51.062;6.920;2023-03-07T12:02:36;2.37;;;2.27;;
4122;SDS011;2075;51.062;6.920;2023-03-07T12:05:35;2.80;;;2.60;;
4122;SDS011;2075;51.062;6.920;2023-03-07T12:08:36;2.20;;;2.10;;
4122;SDS011;2075;51.062;6.920;2023-03-07T12:11:44;2.67;;;2.47;;
4122;SDS011;2075;51.062;6.920;2023-03-07T12:14:41;3.17;;;2.30;;
4122;SDS011;2075;51.062;6.920;2023-03-07T12:17:37;2.33;;;2.23;;
4122;SDS011;2075;51.062;6.920;2023-03-07T12:20:30;2.30;;;2.20;;
4122;SDS011;2075;51.062;6.920;2023-03-07T12:23:26;1.77;;;1.67;;
4122;SDS011;2075;51.062;6.920;2023-03-07T12:26:19;2.17;;;1.93;;
4122;SDS011;2075;51.062;6.920;2023-03-07T12:29:11;2.00;;;1.90;;
4122;SDS011;2075;51.062;6.920;2023-03-07T12:32:06;1.70;;;1.60;;
4122;SDS011;2075;51.062;6.920;2023-03-07T12:34:57;2.33;;;2.13;;
4122;SDS011;2075;51.062;6.920;2023-03-07T12:37:48;2.30;;;2.10;;
4122;SDS011;2075;51.062;6.920;2023-03-07T12:40:39;2.60;;;2.33;;
4122;SDS011;2075;51.062;6.920;2023-03-07T12:43:29;2.30;;;2.20;;
4122;SDS011;2075;51.062;6.920;2023-03-07T12:46:22;4.57;;;4.15;;
4122;SDS011;2075;51.062;6.920;2023-03-07T12:49:16;5.00;;;4.50;;
4122;SDS011;2075;51.062;6.920;2023-03-07T12:52:08;7.63;;;6.43;;
4122;SDS011;2075;51.062;6.920;2023-03-07T12:55:03;7.73;;;6.53;;
4122;SDS011;2075;51.062;6.920;2023-03-07T12:57:59;8.50;;;6.33;;
4122;SDS011;2075;51.062;6.920;2023-03-07T13:00:53;10.20;;;6.70;;
4122;SDS011;2075;51.062;6.920;2023-03-07T13:03:43;11.73;;;8.50;;
4122;SDS011;2075;51.062;6.920;2023-03-07T13:06:34;10.67;;;7.23;;
4122;SDS011;2075;51.062;6.920;2023-03-07T13:09:23;11.37;;;8.20;;
4122;SDS011;2075;51.062;6.920;2023-03-07T13:12:21;9.50;;;7.47;;
4122;SDS011;2075;51.062;6.920;2023-03-07T13:18:53;6.13;;;4.90;;
4122;SDS011;2075;51.062;6.920;2023-03-07T13:22:00;3.37;;;3.17;;
4122;SDS011;2075;51.062;6.920;2023-03-07T13:24:46;3.50;;;3.20;;
4122;SDS011;2075;51.062;6.920;2023-03-07T13:27:41;3.07;;;2.77;;
4122;SDS011;2075;51.062;6.920;2023-03-07T13:30:29;4.40;;;4.10;;
4122;SDS011;2075;51.062;6.920;2023-03-07T13:33:24;3.47;;;3.17;;
4122;SDS011;2075;51.062;6.920;2023-03-07T13:39:34;3.17;;;2.93;;
4122;SDS011;2075;51.062;6.920;2023-03-07T13:45:45;6.10;;;4.60;;
4122;SDS011;2075;51.062;6.920;2023-03-07T13:55:02;5.00;;;4.27;;
4122;SDS011;2075;51.062;6.920;2023-03-07T13:58:05;5.80;;;5.20;;
4122;SDS011;2075;51.062;6.920;2023-03-07T14:01:02;4.77;;;4.30;;
4122;SDS011;2075;51.062;6.920;2023-03-07T14:03:50;4.23;;;3.83;;
4122;SDS011;2075;51.062;6.920;2023-03-07T14:06:39;4.33;;;3.70;;
4122;SDS011;2075;51.062;6.920;2023-03-07T14:09:38;7.90;;;4.20;;
4122;SDS011;2075;51.062;6.920;2023-03-07T14:12:31;3.97;;;3.57;;
4122;SDS011;2075;51.062;6.920;2023-03-07T14:15:25;3.80;;;3.50;;
4122;SDS011;2075;51.062;6.920;2023-03-07T14:18:20;3.93;;;3.53;;
4122;SDS011;2075;51.062;6.920;2023-03-07T14:21:16;3.80;;;3.50;;
4122;SDS011;2075;51.062;6.920;2023-03-07T14:24:14;11.90;;;7.87;;
4122;SDS011;2075;51.062;6.920;2023-03-07T14:27:24;5.00;;;4.50;;
4122;SDS011;2075;51.062;6.920;2023-03-07T14:30:14;5.03;;;4.50;;
4122;SDS011;2075;51.062;6.920;2023-03-07T14:33:00;5.23;;;4.43;;
4122;SDS011;2075;51.062;6.920;2023-03-07T14:35:45;5.63;;;4.50;;
4122;SDS011;2075;51.062;6.920;2023-03-07T14:38:31;7.33;;;5.57;;
4122;SDS011;2075;51.062;6.920;2023-03-07T14:41:24;12.80;;;7.00;;
4122;SDS011;2075;51.062;6.920;2023-03-07T14:44:30;7.97;;;6.10;;
4122;SDS011;2075;51.062;6.920;2023-03-07T14:47:31;8.82;;;6.60;;
4122;SDS011;2075;51.062;6.920;2023-03-07T14:50:24;7.00;;;5.70;;
4122;SDS011;2075;51.062;6.920;2023-03-07T14:53:13;5.87;;;5.00;;
4122;SDS011;2075;51.062;6.920;2023-03-07T14:56:03;5.50;;;4.87;;
4122;SDS011;2075;51.062;6.920;2023-03-07T14:58:51;6.07;;;4.80;;
4122;SDS011;2075;51.062;6.920;2023-03-07T15:01:40;7.13;;;5.40;;
4122;SDS011;2075;51.062;6.920;2023-03-07T15:04:28;5.70;;;4.77;;
4122;SDS011;2075;51.062;6.920;2023-03-07T15:07:19;7.90;;;6.07;;
4122;SDS011;2075;51.062;6.920;2023-03-07T15:10:09;7.97;;;5.00;;
4122;SDS011;2075;51.062;6.920;2023-03-07T15:12:57;5.53;;;5.00;;
4122;SDS011;2075;51.062;6.920;2023-03-07T15:15:44;5.43;;;4.93;;
4122;SDS011;2075;51.062;6.920;2023-03-07T15:18:33;8.37;;;5.87;;
4122;SDS011;2075;51.062;6.920;2023-03-07T15:21:23;8.53;;;5.73;;
4122;SDS011;2075;51.062;6.920;2023-03-07T15:24:15;8.25;;;6.22;;
4122;SDS011;2075;51.062;6.920;2023-03-07T15:27:02;7.47;;;6.17;;
4122;SDS011;2075;51.062;6.920;2023-03-07T15:29:53;9.43;;;6.93;;
4122;SDS011;2075;51.062;6.920;2023-03-07T15:32:39;8.73;;;6.50;;
4122;SDS011;2075;51.062;6.920;2023-03-07T15:35:25;9.80;;;6.77;;
4122;SDS011;2075;51.062;6.920;2023-03-07T15:38:16;12.43;;;8.47;;
4122;SDS011;2075;51.062;6.920;2023-03-07T15:41:23;6.90;;;6.03;;
4122;SDS011;2075;51.062;6.920;2023-03-07T15:44:17;11.00;;;7.40;;
4122;SDS011;2075;51.062;6.920;2023-03-07T15:47:05;15.13;;;9.30;;
4122;SDS011;2075;51.062;6.920;2023-03-07T15:50:00;13.73;;;9.57;;
4122;SDS011;2075;51.062;6.920;2023-03-07T15:52:49;41.40;;;23.50;;
4122;SDS011;2075;51.062;6.920;2023-03-07T15:55:38;31.47;;;18.83;;
4122;SDS011;2075;51.062;6.920;2023-03-07T15:58:23;15.17;;;9.07;;
4122;SDS011;2075;51.062;6.920;2023-03-07T16:01:15;16.90;;;9.53;;
4122;SDS011;2075;51.062;6.920;2023-03-07T16:04:05;12.33;;;8.00;;
4122;SDS011;2075;51.062;6.920;2023-03-07T16:06:50;17.20;;;8.30;;
4122;SDS011;2075;51.062;6.920;2023-03-07T16:09:36;13.07;;;9.10;;
4122;SDS011;2075;51.062;6.920;2023-03-07T16:12:23;14.67;;;8.80;;
4122;SDS011;2075;51.062;6.920;2023-03-07T16:15:11;13.00;;;8.30;;
4122;SDS011;2075;51.062;6.920;2023-03-07T16:17:58;11.70;;;7.10;;
4122;SDS011;2075;51.062;6.920;2023-03-07T16:20:43;10.73;;;6.97;;
4122;SDS011;2075;51.062;6.920;2023-03-07T16:23:29;11.67;;;7.57;;
4122;SDS011;2075;51.062;6.920;2023-03-07T16:26:16;11.93;;;7.90;;
4122;SDS011;2075;51.062;6.920;2023-03-07T16:29:08;11.70;;;7.80;;
4122;SDS011;2075;51.062;6.920;2023-03-07T16:31:58;12.00;;;7.60;;
4122;SDS011;2075;51.062;6.920;2023-03-07T16:34:43;17.40;;;10.33;;
4122;SDS011;2075;51.062;6.920;2023-03-07T16:37:29;16.97;;;9.60;;
4122;SDS011;2075;51.062;6.920;2023-03-07T16:40:16;14.53;;;8.20;;
4122;SDS011;2075;51.062;6.920;2023-03-07T16:43:02;11.50;;;7.60;;
4122;SDS011;2075;51.062;6.920;2023-03-07T16:45:50;7.87;;;5.47;;
4122;SDS011;2075;51.062;6.920;2023-03-07T16:48:35;10.47;;;6.40;;
4122;SDS011;2075;51.062;6.920;2023-03-07T16:51:21;8.23;;;5.90;;
4122;SDS011;2075;51.062;6.920;2023-03-07T16:54:08;10.23;;;7.03;;
4122;SDS011;2075;51.062;6.920;2023-03-07T16:56:54;12.35;;;9.20;;
4122;SDS011;2075;51.062;6.920;2023-03-07T16:59:42;8.70;;;6.00;;
4122;SDS011;2075;51.062;6.920;2023-03-07T17:02:31;9.73;;;6.87;;
4122;SDS011;2075;51.062;6.920;2023-03-07T17:05:17;14.33;;;9.10;;
4122;SDS011;2075;51.062;6.920;2023-03-07T17:08:04;13.53;;;7.47;;
4122;SDS011;2075;51.062;6.920;2023-03-07T17:10:51;13.73;;;8.60;;
4122;SDS011;2075;51.062;6.920;2023-03-07T17:13:37;13.70;;;8.20;;
4122;SDS011;2075;51.062;6.920;2023-03-07T17:16:22;13.82;;;9.05;;
4122;SDS011;2075;51.062;6.920;2023-03-07T17:19:13;19.67;;;10.30;;
4122;SDS011;2075;51.062;6.920;2023-03-07T17:22:08;18.77;;;10.17;;
4122;SDS011;2075;51.062;6.920;2023-03-07T17:24:53;15.10;;;8.63;;
4122;SDS011;2075;51.062;6.920;2023-03-07T17:27:39;13.20;;;7.90;;
4122;SDS011;2075;51.062;6.920;2023-03-07T17:30:29;19.57;;;9.13;;
4122;SDS011;2075;51.062;6.920;2023-03-07T17:33:15;9.67;;;6.27;;
4122;SDS011;2075;51.062;6.920;2023-03-07T17:36:04;12.70;;;7.53;;
4122;SDS011;2075;51.062;6.920;2023-03-07T17:38:50;24.13;;;7.73;;
4122;SDS011;2075;51.062;6.920;2023-03-07T17:41:35;13.77;;;7.60;;
4122;SDS011;2075;51.062;6.920;2023-03-07T17:44:21;13.93;;;6.73;;